createdAt,value
2023-05-10T00:02:12.599Z,41.70
2023-05-10T00:04:39.881Z,41.70
2023-05-10T00:07:07.012Z,41.80
2023-05-10T00:09:34.137Z,41.80
2023-05-10T00:12:01.433Z,41.80
2023-05-10T00:14:28.600Z,41.80
2023-05-10T00:16:55.713Z,41.80
2023-05-10T00:19:22.882Z,41.80
2023-05-10T00:21:50.303Z,41.90
2023-05-10T00:24:17.374Z,41.90
2023-05-10T00:26:44.541Z,42.00
2023-05-10T00:29:11.654Z,42.00
2023-05-10T00:31:38.793Z,42.00
2023-05-10T00:34:05.971Z,42.00
2023-05-10T00:36:33.243Z,42.10
2023-05-10T00:39:00.490Z,41.90
2023-05-10T00:41:27.655Z,41.90
2023-05-10T00:43:54.737Z,41.80
2023-05-10T00:46:22.635Z,41.80
2023-05-10T00:48:51.063Z,41.80
2023-05-10T00:51:18.314Z,41.80
2023-05-10T00:53:49.602Z,41.90
2023-05-10T00:56:17.225Z,41.80
2023-05-10T00:58:44.627Z,41.80
2023-05-10T01:01:12.826Z,41.80
2023-05-10T01:03:41.330Z,41.80
2023-05-10T01:06:09.091Z,41.80
2023-05-10T01:08:36.438Z,41.80
2023-05-10T01:11:03.959Z,41.70
2023-05-10T01:13:44.425Z,41.80
2023-05-10T01:16:11.891Z,41.90
2023-05-10T01:18:41.959Z,41.90
2023-05-10T01:21:43.381Z,41.80
2023-05-10T01:24:48.409Z,41.80
2023-05-10T01:27:37.981Z,41.80
2023-05-10T01:30:44.794Z,41.80
2023-05-10T01:33:37.799Z,41.90
2023-05-10T01:36:32.995Z,41.90
2023-05-10T01:39:12.312Z,41.80
2023-05-10T01:42:05.357Z,41.90
2023-05-10T01:44:59.677Z,41.90
2023-05-10T01:47:43.116Z,41.90
2023-05-10T01:50:20.934Z,42.00
2023-05-10T01:52:55.778Z,42.00
2023-05-10T01:55:26.287Z,42.00
2023-05-10T01:58:06.839Z,42.10
2023-05-10T02:00:35.782Z,42.10
2023-05-10T02:03:09.034Z,42.10
2023-05-10T02:05:37.841Z,42.70
2023-05-10T02:08:07.959Z,42.20
2023-05-10T02:10:36.771Z,42.20
2023-05-10T02:13:05.258Z,42.20
2023-05-10T02:15:33.459Z,42.10
2023-05-10T02:18:02.722Z,42.10
2023-05-10T02:20:32.564Z,42.00
2023-05-10T02:23:00.667Z,42.00
2023-05-10T02:25:29.824Z,42.00
2023-05-10T02:27:58.888Z,41.90
2023-05-10T02:30:26.507Z,41.90
2023-05-10T02:32:54.408Z,41.90
2023-05-10T02:35:23.606Z,41.90
2023-05-10T02:37:52.412Z,41.80
2023-05-10T02:40:20.894Z,41.80
2023-05-10T02:42:50.134Z,41.90
2023-05-10T02:45:21.500Z,41.90
2023-05-10T02:47:49.390Z,41.90
2023-05-10T02:50:17.181Z,41.90
2023-05-10T02:52:50.793Z,41.90
2023-05-10T02:55:22.656Z,41.90
2023-05-10T02:57:58.364Z,41.90
2023-05-10T03:00:26.512Z,41.90
2023-05-10T03:02:53.929Z,41.90
2023-05-10T03:05:21.623Z,41.90
2023-05-10T03:07:49.552Z,41.90
2023-05-10T03:10:17.079Z,41.90
2023-05-10T03:13:12.293Z,41.90
2023-05-10T03:15:59.162Z,41.90
2023-05-10T03:18:35.590Z,41.90
2023-05-10T03:21:07.310Z,41.90
2023-05-10T03:23:44.429Z,41.90
2023-05-10T03:26:15.825Z,41.90
2023-05-10T03:28:43.376Z,41.90
2023-05-10T03:31:11.563Z,41.90
2023-05-10T03:33:51.222Z,42.00
2023-05-10T03:36:18.637Z,42.00
2023-05-10T03:38:45.800Z,42.00
2023-05-10T03:41:13.371Z,42.00
2023-05-10T03:43:40.938Z,42.00
2023-05-10T03:46:08.053Z,42.10
2023-05-10T03:48:35.198Z,42.10
2023-05-10T03:51:02.347Z,42.00
2023-05-10T03:53:29.521Z,42.00
2023-05-10T03:55:56.638Z,42.00
2023-05-10T03:58:23.775Z,41.90
2023-05-10T04:00:51.988Z,41.70
2023-05-10T04:03:19.421Z,41.70
2023-05-10T04:05:46.705Z,42.20
2023-05-10T04:08:13.855Z,41.70
2023-05-10T04:10:41.144Z,41.70
2023-05-10T04:13:08.241Z,41.70
2023-05-10T04:15:35.347Z,41.70
2023-05-10T04:18:02.577Z,41.60
2023-05-10T04:20:29.686Z,41.60
2023-05-10T04:22:56.790Z,41.50
2023-05-10T04:25:23.913Z,41.50
2023-05-10T04:27:51.018Z,41.50
2023-05-10T04:30:18.485Z,41.50
2023-05-10T04:32:45.773Z,41.40
2023-05-10T04:35:13.213Z,41.40
2023-05-10T04:37:40.470Z,41.30
2023-05-10T04:40:08.366Z,41.20
2023-05-10T04:42:35.696Z,41.60
2023-05-10T04:45:02.853Z,41.00
2023-05-10T04:47:30.003Z,40.90
2023-05-10T04:49:57.125Z,40.80
2023-05-10T04:52:24.383Z,40.80
2023-05-10T04:54:52.031Z,40.70
2023-05-10T04:57:19.140Z,40.70
2023-05-10T04:59:47.163Z,40.70
2023-05-10T05:02:15.483Z,40.70
2023-05-10T05:04:42.606Z,40.60
2023-05-10T05:07:09.676Z,40.60
2023-05-10T05:09:36.922Z,40.70
2023-05-10T05:12:04.334Z,40.70
2023-05-10T05:14:31.516Z,40.60
2023-05-10T05:16:58.784Z,40.60
2023-05-10T05:19:26.002Z,40.70
2023-05-10T05:21:53.190Z,40.90
2023-05-10T05:24:20.926Z,41.10
2023-05-10T05:26:48.588Z,41.10
2023-05-10T05:29:15.721Z,41.10
2023-05-10T05:31:42.912Z,41.10
2023-05-10T05:34:10.035Z,41.10
2023-05-10T05:36:41.577Z,41.10
2023-05-10T05:39:09.017Z,41.10
2023-05-10T05:41:36.392Z,41.10
2023-05-10T05:44:03.569Z,41.10
2023-05-10T05:46:30.854Z,41.00
2023-05-10T05:48:58.205Z,41.10
2023-05-10T05:51:25.532Z,41.00
2023-05-10T05:53:52.687Z,40.90
2023-05-10T05:56:25.592Z,40.90
2023-05-10T05:58:53.213Z,40.90
2023-05-10T06:01:20.617Z,41.00
2023-05-10T06:03:48.687Z,41.00
2023-05-10T06:06:16.707Z,41.10
2023-05-10T06:08:43.763Z,41.20
2023-05-10T06:11:11.515Z,41.10
2023-05-10T06:13:38.724Z,41.10
2023-05-10T06:16:06.744Z,41.00
2023-05-10T06:18:34.079Z,40.90
2023-05-10T06:21:01.218Z,40.80
2023-05-10T06:23:28.708Z,40.70
2023-05-10T06:25:56.019Z,40.70
2023-05-10T06:28:23.395Z,40.70
2023-05-10T06:30:50.563Z,40.80
2023-05-10T06:33:17.735Z,40.80
2023-05-10T06:35:45.106Z,41.30
2023-05-10T06:38:12.237Z,40.60
2023-05-10T06:40:43.366Z,40.60
2023-05-10T06:43:11.818Z,40.40
2023-05-10T06:45:39.033Z,40.40
2023-05-10T06:48:06.449Z,40.40
2023-05-10T06:50:34.370Z,40.30
2023-05-10T06:53:02.870Z,40.40
2023-05-10T06:55:30.365Z,40.20
2023-05-10T06:57:58.431Z,40.10
2023-05-10T07:00:25.800Z,40.10
2023-05-10T07:02:53.145Z,40.00
2023-05-10T07:05:21.320Z,40.10
2023-05-10T07:07:48.709Z,40.10
2023-05-10T07:10:16.586Z,40.10
2023-05-10T07:12:43.791Z,40.00
2023-05-10T07:15:11.104Z,40.00
2023-05-10T07:17:38.273Z,39.90
2023-05-10T07:20:06.275Z,40.00
2023-05-10T07:22:33.995Z,40.00
2023-05-10T07:25:01.109Z,39.90
2023-05-10T07:27:28.251Z,39.80
2023-05-10T07:29:55.866Z,40.30
2023-05-10T07:32:23.464Z,39.70
2023-05-10T07:34:51.374Z,39.50
2023-05-10T07:37:18.494Z,39.40
2023-05-10T07:39:45.698Z,39.40
2023-05-10T07:42:12.830Z,39.40
2023-05-10T07:44:39.980Z,39.90
2023-05-10T07:47:07.548Z,39.40
2023-05-10T07:49:34.650Z,39.60
2023-05-10T07:52:01.965Z,39.60
2023-05-10T07:54:29.071Z,39.60
2023-05-10T07:56:56.199Z,39.60
2023-05-10T07:59:23.857Z,39.60
2023-05-10T08:01:51.006Z,39.50
2023-05-10T08:04:18.168Z,39.50
2023-05-10T08:06:45.500Z,40.00
2023-05-10T08:09:12.947Z,39.40
2023-05-10T08:11:41.277Z,39.40
2023-05-10T08:14:08.543Z,39.40
2023-05-10T08:16:35.708Z,39.30
2023-05-10T08:19:03.120Z,39.20
2023-05-10T08:21:30.517Z,39.00
2023-05-10T08:23:58.909Z,39.00
2023-05-10T08:26:26.255Z,39.00
2023-05-10T08:28:53.333Z,38.90
2023-05-10T08:31:20.674Z,38.70
2023-05-10T08:33:47.859Z,38.70
2023-05-10T08:36:20.883Z,38.70
2023-05-10T08:38:50.209Z,38.50
2023-05-10T08:41:18.446Z,38.40
2023-05-10T08:43:47.439Z,39.10
2023-05-10T08:46:19.840Z,38.30
2023-05-10T08:48:48.533Z,38.30
2023-05-10T08:51:19.553Z,38.20
2023-05-10T08:53:47.469Z,38.10
2023-05-10T08:56:16.697Z,38.10
2023-05-10T08:58:43.975Z,38.10
2023-05-10T09:01:12.361Z,38.10
2023-05-10T09:03:40.715Z,38.10
2023-05-10T09:06:08.132Z,38.10
2023-05-10T09:08:35.536Z,38.10
2023-05-10T09:11:02.929Z,38.20
2023-05-10T09:13:31.036Z,38.20
2023-05-10T09:16:02.131Z,38.10
2023-05-10T09:18:34.198Z,38.10
2023-05-10T09:21:01.308Z,38.00
2023-05-10T09:23:33.393Z,37.90
2023-05-10T09:26:05.977Z,37.90
2023-05-10T09:28:51.615Z,37.70
2023-05-10T09:31:18.829Z,37.80
2023-05-10T09:33:47.596Z,37.90
2023-05-10T09:36:15.854Z,37.90
2023-05-10T09:38:53.000Z,37.80
2023-05-10T09:41:22.575Z,37.70
2023-05-10T09:43:50.628Z,37.80
2023-05-10T09:46:18.691Z,37.70
2023-05-10T09:48:48.596Z,37.60
2023-05-10T09:51:26.089Z,37.40
2023-05-10T09:54:16.391Z,37.20
2023-05-10T09:56:44.516Z,37.10
2023-05-10T09:59:13.606Z,37.20
2023-05-10T10:01:42.134Z,37.30
2023-05-10T10:04:10.963Z,37.30
2023-05-10T10:06:39.833Z,37.20
2023-05-10T10:09:08.135Z,37.20
2023-05-10T10:11:40.097Z,37.10
2023-05-10T10:14:07.660Z,37.20
2023-05-10T10:16:35.106Z,37.20
2023-05-10T10:19:02.617Z,37.10
2023-05-10T10:21:29.909Z,37.10
2023-05-10T10:23:57.214Z,37.00
2023-05-10T10:26:25.073Z,37.10
2023-05-10T10:29:25.587Z,37.00
2023-05-10T10:32:25.898Z,37.00
2023-05-10T10:34:53.588Z,36.90
2023-05-10T10:37:20.708Z,36.90
2023-05-10T10:39:51.499Z,36.90
2023-05-10T10:42:45.253Z,36.70
2023-05-10T10:45:15.930Z,36.60
2023-05-10T10:47:44.771Z,36.50
2023-05-10T10:50:14.102Z,36.30
2023-05-10T10:52:42.763Z,36.00
2023-05-10T10:55:20.148Z,35.40
2023-05-10T10:57:50.849Z,35.00
2023-05-10T11:00:25.008Z,35.00
2023-05-10T11:03:16.577Z,35.10
2023-05-10T11:05:45.133Z,35.30
2023-05-10T11:08:19.012Z,35.50
2023-05-10T11:11:10.941Z,35.30
2023-05-10T11:13:48.410Z,35.30
2023-05-10T11:16:22.859Z,35.40
2023-05-10T11:19:05.402Z,35.60
2023-05-10T11:21:35.351Z,35.90
2023-05-10T11:24:07.109Z,36.00
2023-05-10T11:26:36.705Z,36.00
2023-05-10T11:29:06.115Z,36.00
2023-05-10T11:31:33.761Z,36.00
2023-05-10T11:34:05.013Z,36.10
2023-05-10T11:36:37.411Z,36.10
2023-05-10T11:39:05.793Z,35.90
2023-05-10T11:41:33.204Z,35.80
2023-05-10T11:44:00.599Z,35.90
2023-05-10T11:46:29.559Z,35.90
2023-05-10T11:49:02.972Z,35.70
2023-05-10T11:51:30.373Z,35.80
2023-05-10T11:53:58.657Z,35.90
2023-05-10T11:56:28.053Z,35.80
2023-05-10T11:58:59.177Z,35.80
2023-05-10T12:01:27.705Z,35.80
2023-05-10T12:04:00.027Z,35.70
2023-05-10T12:06:33.637Z,35.80
2023-05-10T12:09:06.673Z,35.40
2023-05-10T12:11:39.657Z,35.00
2023-05-10T12:14:10.502Z,34.70
2023-05-10T12:16:37.676Z,34.20
2023-05-10T12:19:04.998Z,34.20
2023-05-10T12:21:32.509Z,34.60
2023-05-10T12:24:09.232Z,34.90
2023-05-10T12:26:37.335Z,35.00
2023-05-10T12:29:20.094Z,35.10
2023-05-10T12:31:56.487Z,35.10
2023-05-10T12:34:36.196Z,35.20
2023-05-10T12:37:04.433Z,35.30
2023-05-10T12:39:43.042Z,35.30
2023-05-10T12:42:10.729Z,35.30
2023-05-10T12:44:37.934Z,35.30
2023-05-10T12:47:05.116Z,35.30
2023-05-10T12:49:32.689Z,35.40
2023-05-10T12:51:59.817Z,35.60
2023-05-10T12:54:29.996Z,35.50
2023-05-10T12:56:57.594Z,35.50
2023-05-10T12:59:24.811Z,35.60
2023-05-10T13:01:51.980Z,35.60
2023-05-10T13:04:19.307Z,35.50
2023-05-10T13:06:46.817Z,35.30
2023-05-10T13:09:15.367Z,35.50
2023-05-10T13:11:42.667Z,35.60
2023-05-10T13:14:09.771Z,35.70
2023-05-10T13:16:36.955Z,35.70
2023-05-10T13:19:05.129Z,35.80
2023-05-10T13:21:32.236Z,35.60
2023-05-10T13:23:59.420Z,35.70
2023-05-10T13:26:26.666Z,35.80
2023-05-10T13:28:53.864Z,35.70
2023-05-10T13:31:21.825Z,35.60
2023-05-10T13:33:48.946Z,35.60
2023-05-10T13:36:16.155Z,35.60
2023-05-10T13:38:43.274Z,35.50
2023-05-10T13:41:11.981Z,35.60
2023-05-10T13:43:39.590Z,35.40
2023-05-10T13:46:06.821Z,35.50
2023-05-10T13:48:34.377Z,35.50
2023-05-10T13:51:02.348Z,35.40
2023-05-10T13:53:29.531Z,35.40
2023-05-10T13:55:56.861Z,35.50
2023-05-10T13:58:24.714Z,35.50
2023-05-10T14:00:51.832Z,35.50
2023-05-10T14:03:19.050Z,35.40
2023-05-10T14:05:46.620Z,35.30
2023-05-10T14:08:14.432Z,35.20
2023-05-10T14:10:41.537Z,35.30
2023-05-10T14:13:09.072Z,35.40
2023-05-10T14:15:36.177Z,35.50
2023-05-10T14:18:03.540Z,35.50
2023-05-10T14:20:33.263Z,35.40
2023-05-10T14:23:00.816Z,35.50
2023-05-10T14:25:28.223Z,35.60
2023-05-10T14:27:55.807Z,35.70
2023-05-10T14:30:23.057Z,35.70
2023-05-10T14:32:50.761Z,35.70
2023-05-10T14:35:19.694Z,35.70
2023-05-10T14:37:47.219Z,35.80
2023-05-10T14:40:15.268Z,35.90
2023-05-10T14:42:43.714Z,35.80
2023-05-10T14:45:12.169Z,35.90
2023-05-10T14:47:39.301Z,35.80
2023-05-10T14:50:07.060Z,35.90
2023-05-10T14:52:34.436Z,36.10
2023-05-10T14:55:02.493Z,36.10
2023-05-10T14:57:30.820Z,36.10
2023-05-10T14:59:58.406Z,36.30
2023-05-10T15:02:26.235Z,36.50
2023-05-10T15:04:53.821Z,36.80
2023-05-10T15:07:21.562Z,37.10
2023-05-10T15:09:48.717Z,37.40
2023-05-10T15:12:15.884Z,37.70
2023-05-10T15:14:42.992Z,38.50
2023-05-10T15:17:10.228Z,39.00
2023-05-10T15:19:37.667Z,39.10
2023-05-10T15:22:06.440Z,39.00
2023-05-10T15:24:33.561Z,38.60
2023-05-10T15:27:01.272Z,38.50
2023-05-10T15:29:28.384Z,39.00
2023-05-10T15:31:55.661Z,39.00
2023-05-10T15:34:22.822Z,38.70
2023-05-10T15:36:49.898Z,38.50
2023-05-10T15:39:17.077Z,38.40
2023-05-10T15:41:44.220Z,38.10
2023-05-10T15:44:12.131Z,38.00
2023-05-10T15:46:39.510Z,37.90
2023-05-10T15:49:07.649Z,38.10
2023-05-10T15:51:36.618Z,38.30
2023-05-10T15:54:07.523Z,38.40
2023-05-10T15:56:35.806Z,38.60
2023-05-10T15:59:03.976Z,38.60
2023-05-10T16:01:32.656Z,38.80
2023-05-10T16:04:00.303Z,39.00
2023-05-10T16:06:27.471Z,39.00
2023-05-10T16:08:54.825Z,38.70
2023-05-10T16:11:22.136Z,38.30
2023-05-10T16:13:49.271Z,38.50
2023-05-10T16:16:16.596Z,38.60
2023-05-10T16:18:44.007Z,38.70
2023-05-10T16:21:11.195Z,42.80
2023-05-10T16:23:38.352Z,43.80
2023-05-10T16:26:05.407Z,43.60
2023-05-10T16:28:32.564Z,42.80
2023-05-10T16:30:59.686Z,41.40
2023-05-10T16:33:26.999Z,42.00
2023-05-10T16:35:54.124Z,41.90
2023-05-10T16:38:22.007Z,42.60
2023-05-10T16:40:49.106Z,42.80
2023-05-10T16:43:16.244Z,42.60
2023-05-10T16:45:43.463Z,41.50
2023-05-10T16:48:10.781Z,40.70
2023-05-10T16:50:37.860Z,40.00
2023-05-10T16:53:05.062Z,39.60
2023-05-10T16:55:32.132Z,39.40
2023-05-10T16:58:01.016Z,39.30
2023-05-10T17:00:28.160Z,39.20
2023-05-10T17:02:55.494Z,39.20
2023-05-10T17:05:23.037Z,39.20
2023-05-10T17:07:50.657Z,39.30
2023-05-10T17:10:18.048Z,39.30
2023-05-10T17:12:46.238Z,39.30
2023-05-10T17:15:13.754Z,39.50
2023-05-10T17:17:40.924Z,39.50
2023-05-10T17:20:08.917Z,39.60
2023-05-10T17:22:36.177Z,39.70
2023-05-10T17:25:04.367Z,39.90
2023-05-10T17:27:31.643Z,40.00
2023-05-10T17:29:59.432Z,40.00
2023-05-10T17:32:26.734Z,40.20
2023-05-10T17:34:54.047Z,40.30
2023-05-10T17:37:21.236Z,40.30
2023-05-10T17:39:48.293Z,40.30
2023-05-10T17:42:17.724Z,40.40
2023-05-10T17:44:44.888Z,40.30
2023-05-10T17:47:12.202Z,40.40
2023-05-10T17:49:40.088Z,40.30
2023-05-10T17:52:07.649Z,40.40
2023-05-10T17:54:34.844Z,40.40
2023-05-10T17:57:02.283Z,41.00
2023-05-10T17:59:29.489Z,40.40
2023-05-10T18:01:56.657Z,40.40
2023-05-10T18:04:23.975Z,40.40
2023-05-10T18:06:51.149Z,40.40
2023-05-10T18:09:18.467Z,40.50
2023-05-10T18:11:45.636Z,40.40
2023-05-10T18:14:12.727Z,40.50
2023-05-10T18:16:39.883Z,40.50
2023-05-10T18:19:10.170Z,40.50
2023-05-10T18:21:38.680Z,40.50
2023-05-10T18:24:06.142Z,40.60
2023-05-10T18:26:33.443Z,40.50
2023-05-10T18:29:01.655Z,40.60
2023-05-10T18:31:28.899Z,40.60
2023-05-10T18:33:56.172Z,40.60
2023-05-10T18:36:23.956Z,40.60
2023-05-10T18:38:51.318Z,40.60
2023-05-10T18:41:18.861Z,40.60
2023-05-10T18:43:45.989Z,40.60
2023-05-10T18:46:13.169Z,40.60
2023-05-10T18:48:40.820Z,40.60
2023-05-10T18:51:07.870Z,40.70
2023-05-10T18:53:35.309Z,40.70
2023-05-10T18:56:02.454Z,40.70
2023-05-10T18:58:30.125Z,40.70
2023-05-10T19:00:58.811Z,40.60
2023-05-10T19:03:25.931Z,40.70
2023-05-10T19:05:53.033Z,40.70
2023-05-10T19:08:20.081Z,40.60
2023-05-10T19:10:47.424Z,40.70
2023-05-10T19:13:15.346Z,40.70
2023-05-10T19:15:42.609Z,40.60
2023-05-10T19:18:09.886Z,40.70
2023-05-10T19:20:38.466Z,40.70
2023-05-10T19:23:10.121Z,40.70
2023-05-10T19:25:39.421Z,40.70
2023-05-10T19:28:06.580Z,40.70
2023-05-10T19:30:33.756Z,40.80
2023-05-10T19:33:04.645Z,40.80
2023-05-10T19:35:31.936Z,40.80
2023-05-10T19:38:02.116Z,40.80
2023-05-10T19:40:29.061Z,40.90
2023-05-10T19:42:57.267Z,40.90
2023-05-10T19:45:24.386Z,41.00
2023-05-10T19:47:51.573Z,41.00
2023-05-10T19:50:19.479Z,41.00
2023-05-10T19:52:46.845Z,41.00
2023-05-10T19:55:28.618Z,41.10
2023-05-10T19:57:56.105Z,41.10
2023-05-10T20:00:24.974Z,41.10
2023-05-10T20:02:52.169Z,41.10
2023-05-10T20:05:19.660Z,41.10
2023-05-10T20:07:46.857Z,41.10
2023-05-10T20:10:16.210Z,41.10
2023-05-10T20:12:51.051Z,41.10
2023-05-10T20:15:23.078Z,41.20
2023-05-10T20:17:52.874Z,41.20
2023-05-10T20:20:21.200Z,41.20
2023-05-10T20:22:49.649Z,41.20
2023-05-10T20:25:17.930Z,41.30
2023-05-10T20:27:45.537Z,41.80
2023-05-10T20:30:13.132Z,41.30
2023-05-10T20:32:40.368Z,41.30
2023-05-10T20:35:07.815Z,41.30
2023-05-10T20:37:34.974Z,41.80
2023-05-10T20:40:02.092Z,41.30
2023-05-10T20:42:29.155Z,41.30
2023-05-10T20:44:56.460Z,41.40
2023-05-10T20:47:23.827Z,41.40
2023-05-10T20:49:51.094Z,41.40
2023-05-10T20:52:18.203Z,41.40
2023-05-10T20:54:45.287Z,41.40
2023-05-10T20:57:13.128Z,41.40
2023-05-10T20:59:40.207Z,41.40
2023-05-10T21:02:07.683Z,41.40
2023-05-10T21:04:34.880Z,41.50
2023-05-10T21:07:02.130Z,41.50
2023-05-10T21:09:29.361Z,41.50
2023-05-10T21:11:56.491Z,41.50
2023-05-10T21:14:23.592Z,41.50
2023-05-10T21:16:51.469Z,41.50
2023-05-10T21:19:18.621Z,41.50
2023-05-10T21:21:45.754Z,41.50
2023-05-10T21:24:12.902Z,41.60
2023-05-10T21:26:40.428Z,41.60
2023-05-10T21:29:07.842Z,41.60
2023-05-10T21:31:35.062Z,41.70
2023-05-10T21:34:02.172Z,41.70
2023-05-10T21:36:29.289Z,41.70
2023-05-10T21:38:56.350Z,41.70
2023-05-10T21:41:24.279Z,41.70
2023-05-10T21:43:51.381Z,41.70
2023-05-10T21:46:18.614Z,41.70
2023-05-10T21:48:45.757Z,42.30
2023-05-10T21:51:12.891Z,41.80
2023-05-10T21:53:40.604Z,41.80
2023-05-10T21:56:07.808Z,41.80
2023-05-10T21:58:34.982Z,41.80
2023-05-10T22:01:02.254Z,41.80
2023-05-10T22:03:29.728Z,41.80
2023-05-10T22:05:56.823Z,41.80
2023-05-10T22:08:23.942Z,41.80
2023-05-10T22:10:52.288Z,41.90
2023-05-10T22:13:19.393Z,41.90
2023-05-10T22:15:46.536Z,41.90
2023-05-10T22:18:13.574Z,41.90
2023-05-10T22:20:40.729Z,41.90
2023-05-10T22:23:07.817Z,41.90
2023-05-10T22:25:34.921Z,42.00
2023-05-10T22:28:01.973Z,42.00
2023-05-10T22:30:30.452Z,42.00
2023-05-10T22:32:59.540Z,42.00
2023-05-10T22:35:26.676Z,41.90
2023-05-10T22:37:53.891Z,42.00
2023-05-10T22:40:21.136Z,42.00
2023-05-10T22:42:48.392Z,41.90
2023-05-10T22:45:15.615Z,42.00
2023-05-10T22:47:42.746Z,42.00
2023-05-10T22:50:10.641Z,42.00
2023-05-10T22:52:39.548Z,42.00
2023-05-10T22:55:07.460Z,42.00
2023-05-10T22:57:34.795Z,42.00
2023-05-10T23:00:04.567Z,42.00
2023-05-10T23:02:32.267Z,42.00
2023-05-10T23:04:59.416Z,42.00
2023-05-10T23:07:26.692Z,42.00
2023-05-10T23:09:53.776Z,42.60
2023-05-10T23:12:20.832Z,42.00
2023-05-10T23:14:48.108Z,42.00
2023-05-10T23:17:15.275Z,42.00
2023-05-10T23:19:42.409Z,42.10
2023-05-10T23:22:10.106Z,42.00
2023-05-10T23:24:37.262Z,42.00
2023-05-10T23:27:04.757Z,42.00
2023-05-10T23:29:32.672Z,42.00
2023-05-10T23:31:59.829Z,42.10
2023-05-10T23:34:26.923Z,42.00
2023-05-10T23:36:53.974Z,42.00
2023-05-10T23:39:21.163Z,42.00
2023-05-10T23:41:48.246Z,42.10
2023-05-10T23:44:15.659Z,42.10
2023-05-10T23:46:42.754Z,42.10
2023-05-10T23:49:09.886Z,42.10
2023-05-10T23:51:36.955Z,42.10
2023-05-10T23:54:04.088Z,42.10
2023-05-10T23:56:31.195Z,42.20
2023-05-10T23:58:58.326Z,42.20
